Time;durP1;ratioP1;P1;durP2;ratioP2;P2;SDS_P1;SDS_P2;PMS_P1;PMS_P2;Temp;Humidity;BMP_temperature;BMP_pressure;BME280_temperature;BME280_humidity;BME280_pressure;Samples;Min_cycle;Max_cycle;Signal;HPM_P1;HPM_P2
2021/07/09 00:02:12;;;;;;;20.20;14.82;;;17.10;99.90;;;;;;5071412;28;20093;-64
2021/07/09 00:04:38;;;;;;;19.63;15.15;;;17.20;99.90;;;;;;5075977;28;20046;-64
2021/07/09 00:07:04;;;;;;;21.52;14.25;;;17.20;99.90;;;;;;5078204;28;20050;-64
2021/07/09 00:09:30;;;;;;;18.92;14.95;;;17.10;99.90;;;;;;5077588;28;20550;-64
2021/07/09 00:11:57;;;;;;;23.20;15.38;;;17.10;99.90;;;;;;5074290;28;20459;-64
2021/07/09 00:14:32;;;;;;;20.92;14.77;;;17.20;99.90;;;;;;5072143;28;20036;-64
2021/07/09 00:16:58;;;;;;;18.27;14.82;;;17.10;99.90;;;;;;5078191;28;20128;-64
2021/07/09 00:19:24;;;;;;;20.65;14.52;;;17.10;99.90;;;;;;5076583;28;20047;-64
2021/07/09 00:21:50;;;;;;;20.60;15.70;;;17.00;99.90;;;;;;5074292;28;20036;-64
2021/07/09 00:24:16;;;;;;;23.17;17.27;;;17.00;99.90;;;;;;5072723;28;20069;-64
2021/07/09 00:26:42;;;;;;;24.55;18.45;;;17.00;99.90;;;;;;5079189;28;20036;-64
2021/07/09 00:29:08;;;;;;;23.63;18.67;;;17.00;99.90;;;;;;5077850;28;20040;-64
2021/07/09 00:31:34;;;;;;;29.52;18.23;;;17.00;99.90;;;;;;5074935;28;20682;-64
2021/07/09 00:34:02;;;;;;;21.67;17.05;;;17.00;99.90;;;;;;5073157;28;20055;-64
2021/07/09 00:36:27;;;;;;;26.17;18.20;;;17.00;99.90;;;;;;5076805;28;20040;-64
2021/07/09 00:38:53;;;;;;;20.63;16.80;;;17.00;99.90;;;;;;5073984;28;20048;-64
2021/07/09 00:41:20;;;;;;;15.43;13.93;;;17.00;99.90;;;;;;5073558;28;20036;-64
2021/07/09 00:43:46;;;;;;;15.82;11.63;;;16.90;99.90;;;;;;5071631;28;20036;-64
2021/07/09 00:46:12;;;;;;;12.93;11.63;;;16.90;99.90;;;;;;5075884;28;20044;-64
2021/07/09 00:48:38;;;;;;;16.38;13.77;;;16.90;99.90;;;;;;5076910;28;20046;-64
2021/07/09 00:51:09;;;;;;;17.60;15.77;;;16.90;99.90;;;;;;5074603;28;20044;-64
2021/07/09 00:53:35;;;;;;;18.63;16.73;;;16.80;99.90;;;;;;5070758;28;20040;-64
2021/07/09 00:56:01;;;;;;;12.77;11.60;;;16.80;99.90;;;;;;5075547;28;20848;-64
2021/07/09 00:58:28;;;;;;;15.55;12.40;;;16.80;99.90;;;;;;5078084;28;20121;-64
2021/07/09 01:00:55;;;;;;;14.38;12.88;;;16.80;99.90;;;;;;5074735;28;20036;-64
2021/07/09 01:03:20;;;;;;;13.70;12.40;;;16.70;99.90;;;;;;5071412;28;20047;-64
2021/07/09 01:05:46;;;;;;;19.15;14.43;;;16.80;99.90;;;;;;5076540;28;20763;-64
2021/07/09 01:08:12;;;;;;;21.92;17.15;;;16.80;99.90;;;;;;5075929;28;20055;-64
2021/07/09 01:10:41;;;;;;;19.30;15.50;;;16.80;99.90;;;;;;5082097;28;20043;-64
2021/07/09 01:13:07;;;;;;;23.17;16.73;;;16.80;99.90;;;;;;5070136;28;20075;-64
2021/07/09 01:15:33;;;;;;;20.45;16.08;;;16.70;99.90;;;;;;5076757;28;20040;-64
2021/07/09 01:17:59;;;;;;;22.17;16.77;;;16.80;99.90;;;;;;5076842;28;20043;-64
2021/07/09 01:20:25;;;;;;;25.90;18.75;;;16.70;99.90;;;;;;5074883;28;20067;-64
2021/07/09 01:22:51;;;;;;;24.80;18.20;;;16.80;99.90;;;;;;5069744;28;20094;-64
2021/07/09 01:25:16;;;;;;;21.73;18.55;;;16.70;99.90;;;;;;5075734;28;20115;-64
2021/07/09 01:27:44;;;;;;;24.85;18.48;;;16.80;99.90;;;;;;5075206;28;20127;-64
2021/07/09 01:30:13;;;;;;;24.27;19.92;;;16.80;99.90;;;;;;5075529;28;20052;-64
2021/07/09 01:32:39;;;;;;;21.10;18.88;;;16.80;99.90;;;;;;5069249;28;20045;-64
2021/07/09 01:35:06;;;;;;;22.38;18.75;;;16.80;99.90;;;;;;5075015;28;20421;-64
2021/07/09 01:37:31;;;;;;;23.77;17.98;;;16.80;99.90;;;;;;5075725;28;20131;-64
2021/07/09 01:39:57;;;;;;;18.45;16.55;;;16.80;99.90;;;;;;5072898;28;20135;-64
2021/07/09 01:42:23;;;;;;;31.13;20.17;;;16.80;99.90;;;;;;5072603;28;20041;-64
2021/07/09 01:44:49;;;;;;;27.10;19.52;;;16.70;99.90;;;;;;5074285;28;20087;-64
2021/07/09 01:47:15;;;;;;;23.33;18.95;;;16.70;99.90;;;;;;5074163;28;20040;-64
2021/07/09 01:49:53;;;;;;;24.40;19.45;;;16.70;99.90;;;;;;5074836;28;20438;-64
2021/07/09 01:52:20;;;;;;;25.02;19.20;;;16.70;99.90;;;;;;5070170;28;20032;-64
2021/07/09 01:54:45;;;;;;;23.98;18.65;;;16.60;99.90;;;;;;5075154;28;20044;-64
2021/07/09 01:57:11;;;;;;;20.45;18.40;;;16.60;99.90;;;;;;5074891;28;20055;-64
2021/07/09 01:59:39;;;;;;;22.35;17.77;;;16.60;99.90;;;;;;5076738;28;20040;-64
2021/07/09 02:02:06;;;;;;;29.42;21.65;;;16.60;99.90;;;;;;5072218;28;20041;-64
2021/07/09 02:04:33;;;;;;;21.63;18.02;;;16.60;99.90;;;;;;5072967;28;20131;-64
2021/07/09 02:06:59;;;;;;;20.25;17.85;;;16.60;99.90;;;;;;5075116;28;20177;-64
2021/07/09 02:09:24;;;;;;;20.77;17.98;;;16.60;99.90;;;;;;5076475;28;23901;-64
2021/07/09 02:11:50;;;;;;;20.42;18.25;;;16.50;99.90;;;;;;5072951;28;20077;-64
2021/07/09 02:14:15;;;;;;;22.92;18.85;;;16.50;99.90;;;;;;5071938;28;20120;-64
2021/07/09 02:16:41;;;;;;;24.33;19.08;;;16.40;99.90;;;;;;5076184;28;20426;-64
2021/07/09 02:19:09;;;;;;;20.92;18.67;;;16.50;99.90;;;;;;5073633;28;20036;-64
2021/07/09 02:21:35;;;;;;;20.42;17.05;;;16.40;99.90;;;;;;5073479;28;20044;-64
2021/07/09 02:24:01;;;;;;;17.30;15.48;;;16.40;99.90;;;;;;5073709;28;20051;-64
2021/07/09 02:26:26;;;;;;;15.73;14.02;;;16.30;99.90;;;;;;5076883;28;20044;-64
2021/07/09 02:28:52;;;;;;;17.20;14.48;;;16.30;99.90;;;;;;5078477;28;20035;-64
2021/07/09 02:31:18;;;;;;;15.10;11.25;;;16.30;99.90;;;;;;5078217;28;20033;-64
2021/07/09 02:33:43;;;;;;;11.85;10.25;;;16.20;99.90;;;;;;5078830;28;20070;-64
2021/07/09 02:36:09;;;;;;;15.60;11.27;;;16.20;99.90;;;;;;5082344;28;20109;-64
2021/07/09 02:38:35;;;;;;;13.52;12.07;;;16.20;99.90;;;;;;5083625;28;20040;-64
2021/07/09 02:41:00;;;;;;;16.05;13.35;;;16.10;99.90;;;;;;5079987;28;20050;-64
2021/07/09 02:43:26;;;;;;;16.05;14.38;;;16.10;99.90;;;;;;5077391;28;20047;-64
2021/07/09 02:45:53;;;;;;;16.92;15.23;;;16.10;99.90;;;;;;5082958;28;20475;-64
2021/07/09 02:48:19;;;;;;;19.77;17.50;;;16.10;99.90;;;;;;5080057;28;20029;-64
2021/07/09 02:50:45;;;;;;;21.10;18.00;;;16.10;99.90;;;;;;5082803;28;20036;-63
2021/07/09 02:53:11;;;;;;;20.80;18.33;;;16.00;99.90;;;;;;5074464;28;20044;-64
2021/07/09 02:55:37;;;;;;;19.48;17.42;;;16.00;99.90;;;;;;5082778;28;20422;-64
2021/07/09 02:58:03;;;;;;;19.73;17.38;;;16.00;99.90;;;;;;5083218;28;20044;-64
2021/07/09 03:00:29;;;;;;;24.27;19.85;;;16.20;99.90;;;;;;5080497;28;20043;-64
2021/07/09 03:02:55;;;;;;;24.58;18.38;;;16.00;99.90;;;;;;5078091;28;20583;-64
2021/07/09 03:05:20;;;;;;;23.15;18.80;;;16.00;99.90;;;;;;5080718;28;20157;-64
2021/07/09 03:07:46;;;;;;;24.33;17.60;;;15.90;99.90;;;;;;5084336;28;20043;-64
2021/07/09 03:10:12;;;;;;;33.78;19.20;;;15.90;99.90;;;;;;5078682;28;20517;-64
2021/07/09 03:12:39;;;;;;;18.80;16.02;;;15.90;99.90;;;;;;5076859;28;20040;-64
2021/07/09 03:15:07;;;;;;;177.68;17.30;;;15.80;99.90;;;;;;5081749;28;20115;-64
2021/07/09 03:17:33;;;;;;;84.90;13.00;;;15.80;99.90;;;;;;5083330;28;20054;-64
2021/07/09 03:19:59;;;;;;;88.82;13.20;;;15.80;99.90;;;;;;5082082;28;20040;-64
2021/07/09 03:22:25;;;;;;;138.07;14.23;;;15.70;99.90;;;;;;5075450;28;20081;-64
2021/07/09 03:24:50;;;;;;;195.85;16.65;;;15.70;99.90;;;;;;5082861;28;20055;-64
2021/07/09 03:27:16;;;;;;;122.57;16.65;;;15.60;99.90;;;;;;5081510;28;20036;-64
2021/07/09 03:29:41;;;;;;;105.82;14.90;;;15.60;99.90;;;;;;5083786;28;20032;-64
2021/07/09 03:32:08;;;;;;;22.98;13.63;;;15.60;99.90;;;;;;5078816;28;20044;-64
2021/07/09 03:34:33;;;;;;;15.15;12.48;;;15.60;99.90;;;;;;5077446;28;20727;-64
2021/07/09 03:36:59;;;;;;;13.55;12.25;;;15.70;99.90;;;;;;5082695;28;20040;-64
2021/07/09 03:39:24;;;;;;;15.73;14.18;;;15.70;99.90;;;;;;5078049;28;20753;-64
2021/07/09 03:41:50;;;;;;;23.55;15.43;;;15.70;99.90;;;;;;5081650;28;20028;-64
2021/07/09 03:44:16;;;;;;;15.63;14.13;;;15.60;99.90;;;;;;5077544;28;20039;-64
2021/07/09 03:46:42;;;;;;;20.90;16.75;;;15.70;99.90;;;;;;5080756;28;20036;-63
2021/07/09 03:49:08;;;;;;;18.80;15.43;;;15.70;99.90;;;;;;5080410;28;20074;-63
2021/07/09 03:51:35;;;;;;;16.48;14.88;;;15.70;99.90;;;;;;5081499;28;20085;-64
2021/07/09 03:54:01;;;;;;;17.80;16.00;;;15.70;99.90;;;;;;5075191;28;20098;-64
2021/07/09 03:56:29;;;;;;;16.60;14.90;;;15.70;99.90;;;;;;5082145;28;20048;-63
2021/07/09 03:58:57;;;;;;;16.30;14.75;;;15.70;99.90;;;;;;5080341;28;20040;-64
2021/07/09 04:01:24;;;;;;;17.80;15.60;;;15.70;99.90;;;;;;5077129;28;20407;-64
2021/07/09 04:03:51;;;;;;;17.98;16.10;;;15.70;99.90;;;;;;5072461;28;20098;-63
2021/07/09 04:06:18;;;;;;;16.08;13.80;;;15.70;99.90;;;;;;5083124;28;20044;-64
2021/07/09 04:08:44;;;;;;;15.93;14.32;;;15.60;99.90;;;;;;5084575;28;20051;-64
2021/07/09 04:11:10;;;;;;;17.55;15.55;;;15.70;99.90;;;;;;5082256;28;20044;-64
2021/07/09 04:13:36;;;;;;;16.05;14.55;;;15.60;99.90;;;;;;5077762;28;20541;-64
2021/07/09 04:16:05;;;;;;;19.38;15.73;;;15.60;99.90;;;;;;5077782;28;20036;-64
2021/07/09 04:18:31;;;;;;;17.23;15.52;;;15.60;99.90;;;;;;5078678;28;20046;-64
2021/07/09 04:20:57;;;;;;;17.73;14.98;;;15.60;99.90;;;;;;5079308;28;20040;-64
2021/07/09 04:23:23;;;;;;;16.33;14.60;;;15.50;99.90;;;;;;5074642;28;20039;-64
2021/07/09 04:25:49;;;;;;;17.75;15.40;;;15.50;99.90;;;;;;5078803;28;20036;-64
2021/07/09 04:28:15;;;;;;;15.40;13.88;;;15.50;99.90;;;;;;5078913;28;20059;-64
2021/07/09 04:30:41;;;;;;;18.58;16.77;;;15.50;99.90;;;;;;5079926;28;20406;-64
2021/07/09 04:33:07;;;;;;;20.02;17.65;;;15.40;99.90;;;;;;5071909;28;20036;-64
2021/07/09 04:35:33;;;;;;;22.08;19.58;;;15.40;99.90;;;;;;5078584;28;20044;-64
2021/07/09 04:37:59;;;;;;;19.33;17.30;;;15.40;99.90;;;;;;5077168;28;20037;-64
2021/07/09 04:40:25;;;;;;;22.80;18.67;;;15.50;99.90;;;;;;5078816;28;21517;-64
2021/07/09 04:42:51;;;;;;;20.88;18.77;;;15.50;99.90;;;;;;5072610;28;20123;-64
2021/07/09 04:45:16;;;;;;;23.55;19.02;;;15.50;99.90;;;;;;5080310;28;20036;-64
2021/07/09 04:47:42;;;;;;;18.50;16.65;;;15.60;99.90;;;;;;5077911;28;20036;-64
2021/07/09 04:50:09;;;;;;;20.20;17.17;;;15.60;99.90;;;;;;5077857;28;20387;-64
2021/07/09 04:52:35;;;;;;;20.92;17.35;;;15.60;99.90;;;;;;5075266;28;20047;-64
2021/07/09 04:55:02;;;;;;;21.17;18.90;;;15.60;99.90;;;;;;5080239;28;20046;-64
2021/07/09 04:57:28;;;;;;;22.52;19.90;;;15.70;99.90;;;;;;5078799;28;20089;-64
2021/07/09 04:59:54;;;;;;;20.58;17.90;;;15.70;99.90;;;;;;5077858;28;20043;-64
2021/07/09 05:02:20;;;;;;;19.33;17.40;;;15.80;99.90;;;;;;5074624;28;20055;-64
2021/07/09 05:04:46;;;;;;;20.58;17.35;;;15.80;99.90;;;;;;5078690;28;20048;-64
2021/07/09 05:07:12;;;;;;;18.17;16.23;;;15.90;99.90;;;;;;5079466;28;20527;-64
2021/07/09 05:09:38;;;;;;;19.65;16.40;;;16.20;99.90;;;;;;5080300;28;20032;-64
2021/07/09 05:12:04;;;;;;;19.60;17.70;;;16.60;99.90;;;;;;5077323;28;20080;-64
2021/07/09 05:14:29;;;;;;;19.55;17.55;;;17.10;99.90;;;;;;5075341;28;20521;-64
2021/07/09 05:16:56;;;;;;;18.60;16.70;;;17.70;99.90;;;;;;5076458;28;20132;-64
2021/07/09 05:19:22;;;;;;;18.27;16.40;;;18.20;99.90;;;;;;5080983;28;20036;-64
2021/07/09 05:21:48;;;;;;;18.27;15.35;;;18.50;99.90;;;;;;5074659;28;20100;-64
2021/07/09 05:24:14;;;;;;;17.20;15.60;;;18.80;99.90;;;;;;5076836;28;20417;-64
2021/07/09 05:26:42;;;;;;;18.10;15.80;;;19.00;99.90;;;;;;5082458;28;20043;-64
2021/07/09 05:29:09;;;;;;;18.98;17.08;;;19.30;99.90;;;;;;5076540;28;20032;-64
2021/07/09 05:31:35;;;;;;;18.45;16.67;;;19.50;99.90;;;;;;5078443;28;20051;-64
2021/07/09 05:34:02;;;;;;;18.20;16.50;;;19.80;99.90;;;;;;5078484;28;20488;-64
2021/07/09 05:36:27;;;;;;;18.35;16.70;;;20.00;99.90;;;;;;5076690;28;20044;-64
2021/07/09 05:38:54;;;;;;;19.10;17.23;;;20.20;99.90;;;;;;5079813;28;20051;-65
2021/07/09 05:41:20;;;;;;;20.63;17.55;;;20.60;99.90;;;;;;5079222;28;20067;-64
2021/07/09 05:43:46;;;;;;;20.15;18.05;;;20.90;99.90;;;;;;5077129;28;20086;-64
2021/07/09 05:46:11;;;;;;;20.55;18.38;;;21.20;99.90;;;;;;5081272;28;20616;-64
2021/07/09 05:48:38;;;;;;;20.23;17.77;;;21.40;99.90;;;;;;5081887;28;20647;-64
2021/07/09 05:51:04;;;;;;;19.08;17.27;;;21.70;99.90;;;;;;5082204;28;20123;-64
2021/07/09 05:53:31;;;;;;;20.02;18.02;;;22.00;99.90;;;;;;5075234;28;20040;-64
2021/07/09 05:55:57;;;;;;;22.38;17.75;;;22.20;99.90;;;;;;5079435;28;20048;-64
2021/07/09 05:58:23;;;;;;;19.08;17.20;;;22.50;99.90;;;;;;5079583;28;20528;-64
2021/07/09 06:00:49;;;;;;;19.95;16.85;;;22.80;99.80;;;;;;5081087;28;20040;-64
2021/07/09 06:03:15;;;;;;;19.95;17.92;;;22.90;99.30;;;;;;5071222;28;20040;-64
2021/07/09 06:05:41;;;;;;;18.13;16.23;;;23.10;98.70;;;;;;5079285;28;20047;-65
2021/07/09 06:08:07;;;;;;;19.48;17.42;;;23.20;98.40;;;;;;5080376;28;20052;-65
2021/07/09 06:10:34;;;;;;;17.20;15.40;;;23.40;98.10;;;;;;5079227;28;20050;-65
2021/07/09 06:12:59;;;;;;;18.77;16.00;;;23.50;97.70;;;;;;5067306;28;20624;-65
2021/07/09 06:15:26;;;;;;;18.80;14.88;;;23.70;97.60;;;;;;5079302;28;20153;-65
2021/07/09 06:17:52;;;;;;;17.67;14.18;;;23.90;97.10;;;;;;5078531;28;20041;-65
2021/07/09 06:20:18;;;;;;;17.83;14.68;;;24.00;96.40;;;;;;5078362;28;20039;-65
2021/07/09 06:22:46;;;;;;;14.77;12.48;;;24.20;96.00;;;;;;5077606;28;20044;-65
2021/07/09 06:25:12;;;;;;;13.90;12.48;;;24.30;95.30;;;;;;5082181;28;20036;-65
2021/07/09 06:27:38;;;;;;;15.15;13.32;;;24.50;95.10;;;;;;5081366;28;20041;-65
2021/07/09 06:30:06;;;;;;;14.40;12.23;;;24.60;94.30;;;;;;5078806;28;20047;-65
2021/07/09 06:32:31;;;;;;;13.40;12.10;;;24.60;94.00;;;;;;5073318;28;20063;-65
2021/07/09 06:34:57;;;;;;;15.43;12.93;;;24.80;94.10;;;;;;5077430;28;20062;-65
2021/07/09 06:37:24;;;;;;;18.05;12.55;;;24.70;93.80;;;;;;5077968;28;20048;-65
2021/07/09 06:39:50;;;;;;;15.45;12.40;;;24.60;94.20;;;;;;5081482;28;20066;-65
2021/07/09 06:42:16;;;;;;;12.93;11.20;;;24.70;94.30;;;;;;5072516;28;20067;-65
2021/07/09 06:44:41;;;;;;;12.73;11.45;;;24.80;93.50;;;;;;5079439;28;20131;-65
2021/07/09 06:47:08;;;;;;;15.07;11.23;;;24.90;93.40;;;;;;5077291;28;20048;-65
2021/07/09 06:49:33;;;;;;;11.23;9.80;;;25.00;93.30;;;;;;5080189;28;20045;-65
2021/07/09 06:51:59;;;;;;;10.20;8.40;;;25.00;93.00;;;;;;5076047;28;20429;-65
2021/07/09 06:54:25;;;;;;;13.10;9.15;;;25.00;92.90;;;;;;5076054;28;20043;-65
2021/07/09 06:56:50;;;;;;;10.73;8.32;;;24.80;92.90;;;;;;5078204;28;20426;-65
2021/07/09 06:59:16;;;;;;;10.48;7.78;;;24.70;92.00;;;;;;5075177;28;20722;-65
2021/07/09 07:01:42;;;;;;;11.57;8.13;;;24.50;92.50;;;;;;5067202;28;20036;-65
2021/07/09 07:04:09;;;;;;;11.77;7.78;;;24.30;92.30;;;;;;5062884;28;20052;-65
2021/07/09 07:06:36;;;;;;;9.73;8.73;;;24.20;92.80;;;;;;5064125;28;20043;-65
2021/07/09 07:09:04;;;;;;;11.77;8.85;;;24.10;93.20;;;;;;5066707;28;20036;-65
2021/07/09 07:11:30;;;;;;;8.98;7.82;;;24.00;92.70;;;;;;5080770;28;20063;-65
2021/07/09 07:13:56;;;;;;;72.38;11.00;;;23.90;92.80;;;;;;5077717;28;20124;-64
2021/07/09 07:16:21;;;;;;;10.38;7.38;;;23.70;93.30;;;;;;5081472;28;20158;-64
2021/07/09 07:18:47;;;;;;;9.07;6.10;;;23.60;93.60;;;;;;5084418;28;20051;-64
2021/07/09 07:21:13;;;;;;;11.18;6.88;;;23.40;93.70;;;;;;5095684;27;20166;-64
2021/07/09 07:23:38;;;;;;;12.55;7.38;;;23.20;93.90;;;;;;5076999;28;20036;-64
2021/07/09 07:26:04;;;;;;;9.27;7.63;;;23.10;94.20;;;;;;5081559;28;20563;-64
2021/07/09 07:28:30;;;;;;;10.75;8.13;;;22.90;94.60;;;;;;5079642;28;20054;-64
2021/07/09 07:30:55;;;;;;;10.48;8.15;;;22.80;94.90;;;;;;5076062;28;20474;-64
2021/07/09 07:33:21;;;;;;;12.30;7.35;;;22.70;95.20;;;;;;5072835;28;20042;-64
2021/07/09 07:35:47;;;;;;;12.63;6.78;;;22.60;95.50;;;;;;5084166;28;20880;-64
2021/07/09 07:38:12;;;;;;;8.75;7.03;;;22.50;95.60;;;;;;5079684;28;20093;-64
2021/07/09 07:40:38;;;;;;;11.27;7.05;;;22.50;95.70;;;;;;5080916;28;20043;-64
2021/07/09 07:43:05;;;;;;;11.07;7.88;;;22.50;95.60;;;;;;5066532;28;20044;-64
2021/07/09 07:45:32;;;;;;;11.55;8.55;;;22.40;95.90;;;;;;5069439;28;20513;-64
2021/07/09 07:47:58;;;;;;;11.13;9.05;;;22.40;96.10;;;;;;5066876;28;21576;-64
2021/07/09 07:50:26;;;;;;;9.10;7.00;;;22.40;96.20;;;;;;5065569;28;20248;-64
2021/07/09 07:52:52;;;;;;;14.43;7.22;;;22.40;96.20;;;;;;5063122;28;20105;-64
2021/07/09 07:55:17;;;;;;;7.93;7.13;;;22.40;96.10;;;;;;5072246;28;20052;-64
2021/07/09 07:57:44;;;;;;;8.40;7.00;;;22.30;96.50;;;;;;5071262;28;20043;-64
2021/07/09 08:00:11;;;;;;;11.85;7.53;;;22.60;96.70;;;;;;5069342;28;20174;-64
2021/07/09 08:02:37;;;;;;;10.70;6.70;;;23.00;95.40;;;;;;5066437;28;20055;-64
2021/07/09 08:05:05;;;;;;;8.30;6.25;;;23.20;94.80;;;;;;5067419;28;20389;-65
2021/07/09 08:07:31;;;;;;;8.82;5.97;;;23.50;94.40;;;;;;5066698;28;20044;-65
2021/07/09 08:09:57;;;;;;;6.53;5.93;;;23.70;94.10;;;;;;5064160;28;20047;-65
2021/07/09 08:12:23;;;;;;;7.35;6.15;;;23.90;93.80;;;;;;5062642;28;20052;-65
2021/07/09 08:14:49;;;;;;;7.22;5.63;;;24.10;93.70;;;;;;5064962;28;20503;-65
2021/07/09 08:17:15;;;;;;;8.02;5.50;;;24.00;93.70;;;;;;5065109;28;20097;-65
2021/07/09 08:19:41;;;;;;;9.70;6.03;;;23.80;93.60;;;;;;5066158;28;20040;-65
2021/07/09 08:22:07;;;;;;;8.15;5.95;;;23.70;93.30;;;;;;5061382;28;20108;-65
2021/07/09 08:24:33;;;;;;;6.05;5.47;;;23.40;92.40;;;;;;5065185;28;20040;-65
2021/07/09 08:27:01;;;;;;;7.00;5.63;;;23.40;92.80;;;;;;5074040;28;20040;-65
2021/07/09 08:29:26;;;;;;;5.68;5.18;;;23.50;93.50;;;;;;5074559;28;20036;-65
2021/07/09 08:31:57;;;;;;;8.52;5.25;;;23.70;94.00;;;;;;5072710;28;20039;-65
2021/07/09 08:34:23;;;;;;;5.13;4.63;;;23.90;92.90;;;;;;5073868;28;20411;-65
2021/07/09 08:36:49;;;;;;;7.70;5.50;;;24.10;92.80;;;;;;5075269;28;20044;-65
2021/07/09 08:39:15;;;;;;;6.55;5.68;;;24.20;92.00;;;;;;5075998;28;20040;-65
2021/07/09 08:41:46;;;;;;;6.07;5.45;;;24.40;92.40;;;;;;5074008;28;20079;-65
2021/07/09 08:44:12;;;;;;;9.05;5.80;;;24.60;91.50;;;;;;5072092;28;20044;-64
2021/07/09 08:46:39;;;;;;;8.52;6.68;;;24.70;90.50;;;;;;5077941;28;20055;-64
2021/07/09 08:49:07;;;;;;;11.98;9.35;;;24.80;91.40;;;;;;5076105;28;20095;-64
2021/07/09 08:51:33;;;;;;;11.20;7.07;;;24.80;90.10;;;;;;5070853;28;20051;-64
2021/07/09 08:53:59;;;;;;;5.35;4.50;;;24.60;86.50;;;;;;5073753;28;20093;-64
